Terminal Aerodrome Forecast
Issued by NWS

Home | Current Version | Previous Version | Text Only | Print | Product List | Glossary On
Versions: 1 2 3 4 5 6 7 8 9 10 11 12 13 14 15 16 17 18
043
FTUS42 KTBW 301409 AAA
TAFPIE
TAF AMD
KPIE 301409Z 3014/0112 16005KT P6SM VCSH SCT020 SCT250
      TEMPO 3014/3015 4SM -SHRA BKN020
     FM301500 21006KT P6SM VCTS SCT025CB SCT250
     FM302000 29008KT P6SM SCT030 BKN120
     FM010300 VRB03KT P6SM SCT250=

USA.gov is the U.S. government's official web portal to all federal, state and local government web resources and services.